Latest Weather Observations for Avalon

IDV60801

Issued at 11:02 pm EDT Tuesday 27 January 2015 (issued every 30 minutes, with the page automatically refreshed every 10 minutes)

About weather observations | Map of weather stations | Latest weather observations for VIC | Other Formats
Station Details ID: 087113 Name: AVALON AIRPORT Lat: -38.03 Lon: 144.48 Height: 10.6 m
Data from the previous 72 hours. | See also: Recent months at Avalon
Date/Time
EDT
Temp
°C
App
Temp
°C
Dew
Point
Rel
Hum
%
Delta-T
°C
Wind Press
QNH
hPa
Press
MSL
hPa
Rain
since 9 am
mm
Dir
 
Spd
km/h
Gust
km/h
Spd
kts
Gust
kts
27/11:00pm 14.7 10.2 8.6 67 3.1 SSE 22 30 12 16 1018.7 1018.7 0.0
27/10:30pm 14.9 9.9 8.2 64 3.4 S 24 33 13 18 1018.7 1018.7 0.0
27/10:00pm 14.7 10.3 8.9 68 2.9 S 22 30 12 16 1018.6 1018.6 0.0
27/09:30pm 14.7 10.1 8.0 64 3.3 S 22 32 12 17 1018.4 1018.4 0.0
27/09:00pm 15.1 9.4 8.3 64 3.4 S 28 33 15 18 1018.3 1018.3 0.0
27/08:30pm 15.6 10.6 8.1 61 3.8 S 24 35 13 19 1018.2 1018.2 0.0
27/08:00pm 16.2 10.2 7.2 55 4.5 SSE 28 35 15 19 1017.9 1017.9 0.0
27/07:30pm 17.4 11.5 7.7 53 4.9 SSE 28 35 15 19 1017.8 1017.8 0.0
27/07:00pm 18.0 11.7 7.4 50 5.3 S 30 39 16 21 1017.4 1017.4 0.0
27/06:30pm 18.5 11.7 7.0 47 5.8 S 32 39 17 21 1017.2 1017.2 0.0
27/06:00pm 19.0 12.5 6.5 44 6.2 SSE 30 41 16 22 1017.2 1017.2 0.0
27/05:30pm 18.6 11.7 7.4 48 5.7 SSE 33 41 18 22 1017.1 1017.1 0.0
27/05:00pm 19.3 12.6 8.3 49 5.7 S 33 43 18 23 1017.3 1017.3 0.0
27/04:30pm 18.3 11.8 8.0 51 5.3 SSE 32 43 17 23 1017.3 1017.3 0.0
27/04:00pm 19.3 12.7 7.7 47 5.9 SSE 32 43 17 23 1017.3 1017.3 0.0
27/03:30pm 19.1 12.3 7.5 47 5.9 S 33 43 18 23 1017.4 1017.4 0.0
27/03:00pm 20.7 14.3 8.4 45 6.4 S 32 48 17 26 1017.4 1017.4 0.0
27/02:30pm 19.1 12.6 8.1 49 5.7 SSE 32 39 17 21 1017.4 1017.4 0.0
27/02:00pm 19.9 13.4 8.9 49 5.8 S 33 43 18 23 1017.4 1017.4 0.0
27/01:30pm 20.1 14.1 10.2 53 5.3 S 32 43 17 23 1017.5 1017.5 0.0
27/01:00pm 19.3 13.2 8.3 49 5.7 S 30 43 16 23 1017.6 1017.6 0.0
27/12:30pm 19.6 14.0 8.6 49 5.7 S 28 39 15 21 1017.7 1017.7 0.0
27/12:00pm 17.8 11.5 7.2 50 5.3 S 30 41 16 22 1017.9 1017.9 0.0
27/11:30am 19.7 13.8 7.4 45 6.3 S 28 37 15 20 1018.1 1018.1 0.0
27/11:00am 19.0 12.9 6.8 45 6.1 SSE 28 37 15 20 1017.9 1017.9 0.0
27/10:30am 18.7 12.7 7.2 47 5.8 S 28 41 15 22 1017.9 1017.9 0.0
27/10:00am 18.1 12.0 6.6 47 5.7 SSE 28 33 15 18 1017.8 1017.8 0.0
27/09:30am 18.0 12.8 7.4 50 5.3 SSE 24 33 13 18 1017.9 1017.9 0.0
27/09:00am 17.3 11.9 7.9 54 4.8 SSE 26 32 14 17 1017.7 1017.7 0.0
27/08:30am 16.5 11.0 7.7 56 4.4 SSE 26 33 14 18 1017.4 1017.4 0.0
27/08:00am 15.9 10.9 7.9 59 4.0 SSE 24 30 13 16 1017.2 1017.2 0.0
27/07:30am 14.8 10.7 8.7 67 3.1 S 20 26 11 14 1017.0 1017.0 0.0
27/07:00am 13.0 9.8 8.5 74 2.2 SSE 15 20 8 11 1016.9 1016.9 0.0
27/06:30am 11.7 8.4 8.2 79 1.7 SSE 15 17 8 9 1016.8 1016.8 0.0
27/06:00am 11.3 8.7 7.6 78 1.8 SSE 11 15 6 8 1016.7 1016.7 0.0
27/05:30am 12.0 8.6 7.7 75 2.1 SSE 15 17 8 9 1016.7 1016.7 0.0
27/05:00am 12.1 8.5 8.2 77 1.9 SSE 17 20 9 11 1016.6 1016.6 0.0
27/04:30am 11.5 8.5 7.8 78 1.8 SSE 13 17 7 9 1016.6 1016.6 0.0
27/04:00am 11.2 7.8 7.5 78 1.8 SSE 15 17 8 9 1016.7 1016.7 0.0
27/03:30am 11.3 8.3 7.6 78 1.8 SSE 13 17 7 9 1016.8 1016.8 0.0
27/03:00am 12.0 9.0 7.9 76 2.0 SSE 13 17 7 9 1016.9 1016.9 0.0
27/02:30am 12.6 9.3 8.1 74 2.2 SSE 15 20 8 11 1017.0 1017.0 0.0
27/02:00am 13.2 9.5 8.1 71 2.5 SSE 17 20 9 11 1017.3 1017.3 0.0
27/01:30am 13.4 9.8 8.5 72 2.4 SSE 17 22 9 12 1017.6 1017.6 0.0
27/01:00am 13.2 9.7 8.7 74 2.3 SSE 17 20 9 11 1017.7 1017.7 0.0
27/12:30am 13.3 10.2 8.8 74 2.3 SSE 15 19 8 10 1017.9 1017.9 0.0
27/12:00am 13.0 9.9 8.7 75 2.1 SSE 15 19 8 10 1018.0 1018.0 0.0
 
Date/Time
EDT
Temp
°C
App
Temp
°C
Dew
Point
Rel
Hum
%
Delta-T
°C
Wind Press
QNH
hPa
Press
MSL
hPa
Rain
since 9 am
mm
Dir
 
Spd
km/h
Gust
km/h
Spd
kts
Gust
kts
26/11:30pm 13.0 9.9 8.7 75 2.2 SSE 15 19 8 10 1018.1 1018.1 0.0
26/11:00pm 12.4 9.4 7.9 74 2.2 SSE 13 17 7 9 1018.2 1018.2 0.0
26/10:30pm 12.5 9.4 7.4 71 2.5 SSE 13 15 7 8 1018.3 1018.3 0.0
26/10:00pm 13.4 10.0 7.8 69 2.8 SSE 15 19 8 10 1018.2 1018.2 0.0
26/09:30pm 14.0 10.7 8.0 67 3.0 SSE 15 20 8 11 1017.9 1017.9 0.0
26/09:00pm 14.3 10.5 7.6 64 3.3 SSE 17 22 9 12 1017.8 1017.8 0.0
26/08:30pm 15.2 10.4 7.5 60 3.8 S 22 28 12 15 1017.6 1017.6 0.0
26/08:00pm 16.2 10.7 7.4 56 4.4 S 26 32 14 17 1017.3 1017.3 0.0
26/07:30pm 16.8 10.8 6.9 52 4.9 S 28 35 15 19 1017.0 1017.0 0.0
26/07:00pm 17.4 11.5 7.5 52 5.0 S 28 39 15 21 1016.6 1016.6 0.0
26/06:30pm 17.9 11.1 7.0 49 5.4 S 32 39 17 21 1016.5 1016.5 0.0
26/06:00pm 18.9 12.7 8.0 49 5.6 S 30 39 16 21 1016.5 1016.5 0.0
26/05:30pm 18.8 12.2 7.9 49 5.6 S 32 43 17 23 1016.5 1016.5 0.0
26/05:00pm 18.9 12.3 7.7 48 5.7 S 32 43 17 23 1016.5 1016.5 0.0
26/04:30pm 19.1 12.4 7.5 47 5.9 S 32 43 17 23 1016.5 1016.5 0.0
26/04:00pm 19.8 13.5 7.5 45 6.3 S 30 41 16 22 1016.6 1016.6 0.0
26/03:30pm 19.7 13.6 8.1 47 6.0 S 30 43 16 23 1016.6 1016.6 0.0
26/03:00pm 19.3 13.1 7.7 47 5.9 SSE 30 43 16 23 1016.5 1016.5 0.0
26/02:30pm 21.0 15.2 9.3 47 6.2 S 30 43 16 23 1016.5 1016.5 0.0
26/02:00pm 19.3 13.7 8.6 50 5.6 S 28 41 15 22 1016.6 1016.6 0.0
26/01:30pm 20.1 15.2 8.4 47 6.1 S 24 33 13 18 1016.8 1016.8 0.0
26/01:00pm 19.8 14.8 8.2 47 6.0 S 24 37 13 20 1016.9 1016.9 0.0
26/12:30pm 18.9 13.1 8.0 49 5.6 S 28 39 15 21 1017.1 1017.1 0.0
26/12:00pm 18.3 14.2 8.8 54 4.9 S 20 28 11 15 1017.1 1017.1 0.0
26/11:30am 17.5 12.4 7.5 52 5.0 S 24 32 13 17 1017.2 1017.2 0.0
26/11:00am 17.3 12.5 7.4 52 5.0 SSW 22 30 12 16 1017.3 1017.3 0.0
26/10:30am 17.4 13.0 7.5 52 5.0 SSW 20 32 11 17 1017.2 1017.2 0.0
26/10:00am 17.7 14.1 8.3 54 4.8 WSW 17 33 9 18 1017.0 1017.0 0.0
26/09:30am 16.1 12.0 7.8 58 4.2 W 19 24 10 13 1017.1 1017.1 0.0
26/09:00am 14.7 10.2 8.4 66 3.2 W 22 28 12 15 1016.9 1016.9 0.0
26/08:30am 12.6 8.0 8.1 74 2.2 W 22 30 12 16 1016.7 1016.7 0.0
26/08:00am 12.2 8.3 8.5 78 1.8 W 19 20 10 11 1016.6 1016.6 0.0
26/07:30am 9.9 7.4 8.2 89 0.8 WNW 11 15 6 8 1016.3 1016.3 0.0
26/07:00am 8.5 5.3 6.8 89 0.8 NW 13 15 7 8 1015.7 1015.7 0.0
26/06:30am 7.1 4.9 5.3 88 0.8 NW 6 9 3 5 1015.6 1015.6 0.0
26/06:00am 8.1 5.5 5.9 86 1.0 WNW 9 13 5 7 1015.2 1015.2 0.0
26/05:30am 8.9 6.0 6.7 86 1.0 W 11 13 6 7 1014.7 1014.7 0.0
26/05:00am 8.8 5.1 6.2 84 1.2 WNW 15 17 8 9 1014.6 1014.6 0.0
26/04:30am 9.2 5.5 6.5 83 1.3 WNW 15 17 8 9 1014.5 1014.5 0.0
26/04:00am 8.3 5.3 5.9 85 1.1 NW 11 13 6 7 1014.3 1014.3 0.0
26/03:30am 8.0 4.9 5.5 84 1.1 NNW 11 13 6 7 1014.3 1014.3 0.0
26/03:00am 8.3 4.8 5.6 83 1.2 NNW 13 17 7 9 1014.1 1014.1 0.0
26/02:30am 9.0 6.9 5.9 81 1.4 NW 6 11 3 6 1014.0 1014.0 0.0
26/02:00am 9.1 6.0 5.5 78 1.6 W 11 11 6 6 1013.9 1013.9 0.0
26/01:30am 10.4 7.1 6.2 75 2.0 W 13 15 7 8 1013.8 1013.8 0.0
26/01:00am 10.8 8.2 6.2 73 2.1 W 9 11 5 6 1014.0 1014.0 0.0
26/12:30am 10.4 7.3 5.6 72 2.2 W 11 13 6 7 1013.9 1013.9 0.0
26/12:00am 11.6 9.0 5.9 68 2.7 W 9 13 5 7 1013.9 1013.9 0.0
 
Date/Time
EDT
Temp
°C
App
Temp
°C
Dew
Point
Rel
Hum
%
Delta-T
°C
Wind Press
QNH
hPa
Press
MSL
hPa
Rain
since 9 am
mm
Dir
 
Spd
km/h
Gust
km/h
Spd
kts
Gust
kts
25/11:30pm 11.3 8.3 5.8 69 2.6 W 11 13 6 7 1013.8 1013.8 0.0
25/11:00pm 12.6 10.0 6.2 65 3.0 W 9 13 5 7 1013.7 1013.7 0.0
25/10:30pm 13.5 9.8 6.4 62 3.4 WNW 15 17 8 9 1013.7 1013.7 0.0
25/10:00pm 12.9 9.5 6.0 63 3.3 W 13 15 7 8 1013.5 1013.5 0.0
25/09:30pm 14.8 10.6 5.9 55 4.3 W 17 24 9 13 1013.1 1013.1 0.0
25/09:00pm 15.2 10.5 5.1 51 4.8 W 19 32 10 17 1012.7 1012.7 0.0
25/08:30pm 16.0 10.4 5.3 49 5.1 WSW 24 35 13 19 1012.3 1012.3 0.0
25/08:00pm 16.8 10.3 4.5 44 5.8 W 28 35 15 19 1011.9 1011.9 0.0
25/07:30pm 17.8 10.5 4.4 41 6.4 SW 32 39 17 21 1011.3 1011.3 0.0
25/07:00pm 18.1 11.5 4.3 40 6.6 WSW 28 41 15 22 1011.1 1011.1 0.0
25/06:30pm 18.2 11.3 4.4 40 6.6 WSW 30 46 16 25 1010.6 1010.6 0.0
25/06:00pm 18.6 12.7 5.8 43 6.3 SW 26 43 14 23 1010.3 1010.3 0.0
25/05:30pm 18.9 11.7 5.7 42 6.5 WSW 33 46 18 25 1010.1 1010.1 0.0
25/05:01pm 19.2 11.1 5.3 40 6.8 WSW 37 56 20 30 1010.0 1010.0 0.0
25/05:00pm 19.5 11.9 5.9 41 6.7 WSW 35 46 19 25 1010.0 1010.0 0.0
25/04:44pm 18.3 9.4 6.8 47 5.7 WSW 43 61 23 33 1010.1 1010.1 0.0
25/04:30pm 19.1 9.4 7.5 47 5.9 WSW 48 61 26 33 1009.9 1009.9 0.0
25/04:00pm 19.3 11.8 6.1 42 6.6 WSW 35 54 19 29 1009.3 1009.3 0.0
25/03:37pm 19.3 10.8 5.0 39 6.9 W 39 57 21 31 1009.2 1009.2 0.0
25/03:30pm 20.8 12.9 6.4 39 7.3 W 37 48 20 26 1009.1 1009.1 0.0
25/03:00pm 20.0 12.2 4.9 37 7.4 W 35 54 19 29 1009.0 1009.0 0.0
25/02:30pm 21.0 13.0 3.7 32 8.3 W 35 61 19 33 1008.7 1008.7 0.0
25/02:00pm 19.5 10.6 3.2 34 7.7 W 39 57 21 31 1008.7 1008.7 0.0
25/01:30pm 19.2 10.6 4.9 39 6.9 W 39 57 21 31 1008.6 1008.6 0.0
25/01:29pm 20.0 12.0 5.6 39 7.1 W 37 57 20 31 1008.6 1008.6 0.0
25/01:00pm 20.5 11.5 4.5 35 7.8 WNW 41 50 22 27 1008.4 1008.4 0.0
25/12:56pm 20.4 11.7 4.0 34 7.9 W 39 50 21 27 1008.4 1008.4 0.0
25/12:30pm 18.1 10.9 6.0 45 5.9 WSW 33 44 18 24 1008.7 1008.7 0.0
25/12:12pm 18.8 11.3 6.3 44 6.2 W 35 56 19 30 1008.4 1008.4 0.0
25/12:00pm 19.5 12.4 6.6 43 6.5 W 33 46 18 25 1008.4 1008.4 0.0
25/11:30am 19.0 12.5 8.1 49 5.6 W 32 44 17 24 1008.4 1008.4 0.0
25/11:00am 18.7 12.1 7.8 49 5.6 W 32 43 17 23 1008.3 1008.3 0.0
25/10:30am 18.0 13.1 9.9 59 4.3 W 26 35 14 19 1008.2 1008.2 0.0
25/10:00am 17.5 12.8 9.2 58 4.3 W 24 39 13 21 1008.0 1008.0 0.0
25/09:30am 16.3 12.0 9.3 63 3.6 W 22 32 12 17 1007.7 1007.7 0.0
25/09:00am 15.9 11.8 10.0 68 3.1 W 22 28 12 15 1007.3 1007.3 0.6
25/08:30am 15.1 10.8 10.7 75 2.3 W 24 33 13 18 1007.2 1007.2 0.6
25/08:00am 14.6 9.7 11.4 81 1.7 W 28 39 15 21 1006.8 1006.8 0.6
25/07:30am 14.0 9.3 11.9 87 1.1 W 28 35 15 19 1006.3 1006.3 0.6
25/07:00am 13.3 10.2 11.7 90 0.9 WNW 19 24 10 13 1005.8 1005.8 0.6
25/06:30am 13.4 10.2 11.8 90 0.9 WNW 20 28 11 15 1005.2 1005.2 0.6
25/06:00am 13.4 10.8 12.0 91 0.8 W 17 24 9 13 1004.8 1004.8 0.6
25/05:30am 13.4 9.5 12.0 91 0.8 W 24 28 13 15 1004.5 1004.5 0.6
25/05:00am 13.4 9.4 11.8 90 0.9 W 24 33 13 18 1004.1 1004.1 0.6
25/04:45am 13.5 9.2 11.9 90 0.9 W 26 39 14 21 1004.1 1004.1 0.6
25/04:35am 13.6 7.2 12.0 90 0.9 W 37 56 20 30 1004.2 1004.2 0.4
25/04:30am 14.0 7.0 12.4 90 0.9 W 41 56 22 30 1004.1 1004.1 0.4
25/04:22am 15.3 8.5 13.0 86 1.3 W 41 56 22 30 1003.7 1003.7 0.0
25/04:09am 17.0 12.0 12.3 74 2.6 W 30 52 16 28 1003.1 1003.1 0.0
25/04:00am 17.2 13.0 12.3 73 2.7 W 26 35 14 19 1003.0 1003.0 0.0
25/03:30am 16.0 14.0 11.6 75 2.4 NW 13 17 7 9 1002.5 1002.5 0.0
25/03:00am 15.4 13.9 11.8 79 2.0 NW 11 13 6 7 1002.7 1002.7 0.0
25/02:30am 15.5 14.3 11.5 77 2.2 N 9 11 5 6 1002.6 1002.6 0.0
25/02:00am 16.7 15.9 11.8 73 2.7 N 7 9 4 5 1002.8 1002.8 0.0
25/01:30am 17.3 15.8 12.0 71 2.9 NW 11 13 6 7 1003.4 1003.4 0.0
25/01:00am 17.2 15.4 12.1 72 2.8 NW 13 15 7 8 1003.6 1003.6 0.0
25/12:30am 16.5 14.8 12.3 76 2.3 NW 13 17 7 9 1003.9 1003.9 0.0
25/12:00am 14.3 13.9 11.1 81 1.7 NW 4 13 2 7 1004.1 1004.1 0.0
 
Date/Time
EDT
Temp
°C
App
Temp
°C
Dew
Point
Rel
Hum
%
Delta-T
°C
Wind Press
QNH
hPa
Press
MSL
hPa
Rain
since 9 am
mm
Dir
 
Spd
km/h
Gust
km/h
Spd
kts
Gust
kts
24/11:30pm 16.0 15.2 11.8 76 2.3 SSW 7 9 4 5 1004.1 1004.1 0.0

Other Formats:

Comma delimited format used in spreadsheet applications
http://www.bom.gov.au/fwo/IDV60801/IDV60801.94854.axf

JavaScript Object Notation format (JSON) in row-major order
http://www.bom.gov.au/fwo/IDV60801/IDV60801.94854.json